sensor_id;sensor_type;location;lat;lon;timestamp;P1;durP1;ratioP1;P2;durP2;ratioP2
39994;SDS011;25686;51.908;10.418;2023-07-16T00:00:51;4.80;;;4.00;;
39994;SDS011;25686;51.908;10.418;2023-07-16T00:02:52;7.07;;;3.92;;
39994;SDS011;25686;51.908;10.418;2023-07-16T00:04:53;7.25;;;4.10;;
39994;SDS011;25686;51.908;10.418;2023-07-16T00:06:54;5.53;;;4.18;;
39994;SDS011;25686;51.908;10.418;2023-07-16T00:08:55;6.97;;;3.78;;
39994;SDS011;25686;51.908;10.418;2023-07-16T00:10:56;5.63;;;4.22;;
39994;SDS011;25686;51.908;10.418;2023-07-16T00:12:57;5.18;;;3.80;;
39994;SDS011;25686;51.908;10.418;2023-07-16T00:14:57;6.60;;;3.83;;
39994;SDS011;25686;51.908;10.418;2023-07-16T00:16:58;5.68;;;3.88;;
39994;SDS011;25686;51.908;10.418;2023-07-16T00:19:00;7.72;;;4.00;;
39994;SDS011;25686;51.908;10.418;2023-07-16T00:21:01;5.53;;;3.83;;
39994;SDS011;25686;51.908;10.418;2023-07-16T00:23:02;5.28;;;3.65;;
39994;SDS011;25686;51.908;10.418;2023-07-16T00:25:03;4.38;;;3.70;;
39994;SDS011;25686;51.908;10.418;2023-07-16T00:27:04;5.72;;;4.13;;
39994;SDS011;25686;51.908;10.418;2023-07-16T00:29:05;7.28;;;3.88;;
39994;SDS011;25686;51.908;10.418;2023-07-16T00:31:06;6.32;;;3.70;;
39994;SDS011;25686;51.908;10.418;2023-07-16T00:33:07;4.15;;;3.42;;
39994;SDS011;25686;51.908;10.418;2023-07-16T00:35:08;5.75;;;4.25;;
39994;SDS011;25686;51.908;10.418;2023-07-16T00:37:09;4.60;;;4.18;;
39994;SDS011;25686;51.908;10.418;2023-07-16T00:39:10;4.60;;;4.10;;
39994;SDS011;25686;51.908;10.418;2023-07-16T00:41:12;5.70;;;3.88;;
39994;SDS011;25686;51.908;10.418;2023-07-16T00:43:14;6.57;;;3.85;;
39994;SDS011;25686;51.908;10.418;2023-07-16T00:45:15;4.63;;;3.95;;
39994;SDS011;25686;51.908;10.418;2023-07-16T00:47:16;4.18;;;3.60;;
39994;SDS011;25686;51.908;10.418;2023-07-16T00:49:18;4.97;;;3.83;;
39994;SDS011;25686;51.908;10.418;2023-07-16T00:51:19;4.60;;;3.40;;
39994;SDS011;25686;51.908;10.418;2023-07-16T00:53:22;7.35;;;3.92;;
39994;SDS011;25686;51.908;10.418;2023-07-16T00:55:23;5.43;;;3.90;;
39994;SDS011;25686;51.908;10.418;2023-07-16T00:57:24;5.78;;;4.25;;
39994;SDS011;25686;51.908;10.418;2023-07-16T00:59:25;5.10;;;3.65;;
39994;SDS011;25686;51.908;10.418;2023-07-16T01:01:26;6.70;;;3.55;;
39994;SDS011;25686;51.908;10.418;2023-07-16T01:03:27;4.78;;;3.50;;
39994;SDS011;25686;51.908;10.418;2023-07-16T01:05:31;5.45;;;3.55;;
39994;SDS011;25686;51.908;10.418;2023-07-16T01:07:35;7.82;;;3.95;;
39994;SDS011;25686;51.908;10.418;2023-07-16T01:09:37;5.30;;;3.20;;
39994;SDS011;25686;51.908;10.418;2023-07-16T01:11:42;10.60;;;3.60;;
39994;SDS011;25686;51.908;10.418;2023-07-16T01:13:43;3.63;;;3.28;;
39994;SDS011;25686;51.908;10.418;2023-07-16T01:15:44;5.32;;;3.25;;
39994;SDS011;25686;51.908;10.418;2023-07-16T01:17:45;8.23;;;3.60;;
39994;SDS011;25686;51.908;10.418;2023-07-16T01:19:46;3.50;;;3.20;;
39994;SDS011;25686;51.908;10.418;2023-07-16T01:22:08;4.55;;;3.35;;
39994;SDS011;25686;51.908;10.418;2023-07-16T01:28:39;3.58;;;3.13;;
39994;SDS011;25686;51.908;10.418;2023-07-16T01:30:45;5.97;;;3.80;;
39994;SDS011;25686;51.908;10.418;2023-07-16T01:32:46;3.80;;;3.40;;
39994;SDS011;25686;51.908;10.418;2023-07-16T01:34:47;5.28;;;3.13;;
39994;SDS011;25686;51.908;10.418;2023-07-16T01:36:49;5.25;;;3.58;;
39994;SDS011;25686;51.908;10.418;2023-07-16T01:38:50;5.50;;;3.33;;
39994;SDS011;25686;51.908;10.418;2023-07-16T01:40:53;4.65;;;3.42;;
39994;SDS011;25686;51.908;10.418;2023-07-16T01:42:54;5.53;;;3.22;;
39994;SDS011;25686;51.908;10.418;2023-07-16T01:44:55;3.67;;;3.20;;
39994;SDS011;25686;51.908;10.418;2023-07-16T01:49:29;4.82;;;3.15;;
39994;SDS011;25686;51.908;10.418;2023-07-16T01:51:30;5.28;;;3.22;;
39994;SDS011;25686;51.908;10.418;2023-07-16T01:53:31;6.40;;;3.30;;
39994;SDS011;25686;51.908;10.418;2023-07-16T01:55:33;5.03;;;3.35;;
39994;SDS011;25686;51.908;10.418;2023-07-16T01:57:34;4.20;;;3.10;;
39994;SDS011;25686;51.908;10.418;2023-07-16T01:59:35;6.05;;;3.50;;
39994;SDS011;25686;51.908;10.418;2023-07-16T02:01:36;4.15;;;3.38;;
39994;SDS011;25686;51.908;10.418;2023-07-16T02:03:37;5.32;;;3.28;;
39994;SDS011;25686;51.908;10.418;2023-07-16T02:05:38;4.53;;;3.10;;
39994;SDS011;25686;51.908;10.418;2023-07-16T02:07:39;5.25;;;3.30;;
39994;SDS011;25686;51.908;10.418;2023-07-16T02:09:40;6.60;;;3.22;;
39994;SDS011;25686;51.908;10.418;2023-07-16T02:11:41;4.15;;;2.85;;
39994;SDS011;25686;51.908;10.418;2023-07-16T02:13:42;3.80;;;2.95;;
39994;SDS011;25686;51.908;10.418;2023-07-16T02:15:43;4.70;;;3.40;;
39994;SDS011;25686;51.908;10.418;2023-07-16T02:17:44;4.30;;;3.00;;
39994;SDS011;25686;51.908;10.418;2023-07-16T02:19:45;5.70;;;3.25;;
39994;SDS011;25686;51.908;10.418;2023-07-16T02:21:46;5.82;;;3.50;;
39994;SDS011;25686;51.908;10.418;2023-07-16T02:23:47;6.93;;;3.47;;
39994;SDS011;25686;51.908;10.418;2023-07-16T02:25:48;3.97;;;3.22;;
39994;SDS011;25686;51.908;10.418;2023-07-16T02:27:49;4.47;;;3.28;;
39994;SDS011;25686;51.908;10.418;2023-07-16T02:29:50;4.05;;;3.00;;
39994;SDS011;25686;51.908;10.418;2023-07-16T02:31:51;3.42;;;3.08;;
39994;SDS011;25686;51.908;10.418;2023-07-16T02:33:52;5.45;;;3.25;;
39994;SDS011;25686;51.908;10.418;2023-07-16T02:35:53;4.90;;;3.03;;
39994;SDS011;25686;51.908;10.418;2023-07-16T02:37:54;4.85;;;3.20;;
39994;SDS011;25686;51.908;10.418;2023-07-16T02:39:55;4.63;;;3.22;;
39994;SDS011;25686;51.908;10.418;2023-07-16T02:41:56;5.30;;;2.83;;
39994;SDS011;25686;51.908;10.418;2023-07-16T02:44:00;5.38;;;3.25;;
39994;SDS011;25686;51.908;10.418;2023-07-16T02:46:01;4.78;;;3.25;;
39994;SDS011;25686;51.908;10.418;2023-07-16T02:48:02;5.32;;;2.90;;
39994;SDS011;25686;51.908;10.418;2023-07-16T02:50:03;6.28;;;2.85;;
39994;SDS011;25686;51.908;10.418;2023-07-16T02:52:05;4.82;;;3.25;;
39994;SDS011;25686;51.908;10.418;2023-07-16T02:54:06;3.75;;;2.90;;
39994;SDS011;25686;51.908;10.418;2023-07-16T02:56:07;3.17;;;2.88;;
39994;SDS011;25686;51.908;10.418;2023-07-16T02:58:08;4.63;;;3.00;;
39994;SDS011;25686;51.908;10.418;2023-07-16T03:00:09;5.72;;;2.95;;
39994;SDS011;25686;51.908;10.418;2023-07-16T03:02:10;4.25;;;2.67;;
39994;SDS011;25686;51.908;10.418;2023-07-16T03:04:11;9.02;;;3.20;;
39994;SDS011;25686;51.908;10.418;2023-07-16T03:06:12;5.35;;;2.75;;
39994;SDS011;25686;51.908;10.418;2023-07-16T03:08:13;6.78;;;2.70;;
39994;SDS011;25686;51.908;10.418;2023-07-16T03:10:14;5.63;;;3.13;;
39994;SDS011;25686;51.908;10.418;2023-07-16T03:12:15;5.20;;;2.88;;
39994;SDS011;25686;51.908;10.418;2023-07-16T03:14:16;4.93;;;2.80;;
39994;SDS011;25686;51.908;10.418;2023-07-16T03:16:17;9.10;;;2.85;;
39994;SDS011;25686;51.908;10.418;2023-07-16T03:18:18;5.80;;;2.78;;
39994;SDS011;25686;51.908;10.418;2023-07-16T03:20:20;6.00;;;3.08;;
39994;SDS011;25686;51.908;10.418;2023-07-16T03:22:20;5.40;;;2.90;;
39994;SDS011;25686;51.908;10.418;2023-07-16T03:24:21;4.78;;;2.75;;
39994;SDS011;25686;51.908;10.418;2023-07-16T03:26:23;5.82;;;2.80;;
39994;SDS011;25686;51.908;10.418;2023-07-16T03:28:23;4.40;;;2.67;;
39994;SDS011;25686;51.908;10.418;2023-07-16T03:30:25;5.57;;;2.70;;
39994;SDS011;25686;51.908;10.418;2023-07-16T03:32:26;5.80;;;2.63;;
39994;SDS011;25686;51.908;10.418;2023-07-16T03:34:26;3.40;;;2.78;;
39994;SDS011;25686;51.908;10.418;2023-07-16T03:36:27;7.20;;;2.80;;
39994;SDS011;25686;51.908;10.418;2023-07-16T03:38:28;5.95;;;2.70;;
39994;SDS011;25686;51.908;10.418;2023-07-16T03:40:29;6.40;;;2.15;;
39994;SDS011;25686;51.908;10.418;2023-07-16T03:42:30;4.32;;;2.80;;
39994;SDS011;25686;51.908;10.418;2023-07-16T03:44:31;5.30;;;3.00;;
39994;SDS011;25686;51.908;10.418;2023-07-16T03:46:32;4.97;;;2.50;;
39994;SDS011;25686;51.908;10.418;2023-07-16T03:48:34;7.00;;;2.63;;
39994;SDS011;25686;51.908;10.418;2023-07-16T03:50:35;7.10;;;2.50;;
39994;SDS011;25686;51.908;10.418;2023-07-16T03:52:37;3.45;;;2.70;;
39994;SDS011;25686;51.908;10.418;2023-07-16T03:54:37;4.35;;;2.40;;
39994;SDS011;25686;51.908;10.418;2023-07-16T03:56:38;4.53;;;2.50;;
39994;SDS011;25686;51.908;10.418;2023-07-16T03:58:39;4.22;;;2.65;;
39994;SDS011;25686;51.908;10.418;2023-07-16T04:00:41;5.97;;;2.65;;
39994;SDS011;25686;51.908;10.418;2023-07-16T04:02:42;4.28;;;2.30;;
39994;SDS011;25686;51.908;10.418;2023-07-16T04:04:43;5.82;;;2.30;;
39994;SDS011;25686;51.908;10.418;2023-07-16T04:06:44;3.58;;;2.17;;
39994;SDS011;25686;51.908;10.418;2023-07-16T04:08:45;3.47;;;2.30;;
39994;SDS011;25686;51.908;10.418;2023-07-16T04:10:46;6.75;;;2.53;;
39994;SDS011;25686;51.908;10.418;2023-07-16T04:12:47;6.03;;;2.30;;
39994;SDS011;25686;51.908;10.418;2023-07-16T04:14:48;5.20;;;2.60;;
39994;SDS011;25686;51.908;10.418;2023-07-16T04:16:49;5.78;;;2.50;;
39994;SDS011;25686;51.908;10.418;2023-07-16T04:18:50;3.78;;;2.38;;
39994;SDS011;25686;51.908;10.418;2023-07-16T04:20:51;4.65;;;2.40;;
39994;SDS011;25686;51.908;10.418;2023-07-16T04:22:52;3.90;;;2.50;;
39994;SDS011;25686;51.908;10.418;2023-07-16T04:24:53;4.60;;;2.38;;
39994;SDS011;25686;51.908;10.418;2023-07-16T04:26:54;3.97;;;2.40;;
39994;SDS011;25686;51.908;10.418;2023-07-16T04:28:55;4.05;;;2.42;;
39994;SDS011;25686;51.908;10.418;2023-07-16T04:30:56;4.38;;;2.30;;
39994;SDS011;25686;51.908;10.418;2023-07-16T04:32:57;4.57;;;2.30;;
39994;SDS011;25686;51.908;10.418;2023-07-16T04:34:58;4.32;;;2.25;;
39994;SDS011;25686;51.908;10.418;2023-07-16T04:36:59;4.95;;;2.45;;
39994;SDS011;25686;51.908;10.418;2023-07-16T04:39:00;4.65;;;2.60;;
39994;SDS011;25686;51.908;10.418;2023-07-16T04:41:01;6.00;;;2.40;;
39994;SDS011;25686;51.908;10.418;2023-07-16T04:43:02;4.22;;;2.72;;
39994;SDS011;25686;51.908;10.418;2023-07-16T04:45:04;6.18;;;2.45;;
39994;SDS011;25686;51.908;10.418;2023-07-16T04:47:05;5.50;;;2.53;;
39994;SDS011;25686;51.908;10.418;2023-07-16T04:49:06;5.45;;;2.38;;
39994;SDS011;25686;51.908;10.418;2023-07-16T04:51:07;7.20;;;2.50;;
39994;SDS011;25686;51.908;10.418;2023-07-16T04:53:08;3.95;;;2.35;;
39994;SDS011;25686;51.908;10.418;2023-07-16T04:55:10;5.30;;;2.67;;
39994;SDS011;25686;51.908;10.418;2023-07-16T04:57:12;4.28;;;2.47;;
39994;SDS011;25686;51.908;10.418;2023-07-16T04:59:13;4.90;;;2.40;;
39994;SDS011;25686;51.908;10.418;2023-07-16T05:01:14;5.47;;;2.13;;
39994;SDS011;25686;51.908;10.418;2023-07-16T05:03:15;3.50;;;2.20;;
39994;SDS011;25686;51.908;10.418;2023-07-16T05:05:16;5.97;;;2.58;;
39994;SDS011;25686;51.908;10.418;2023-07-16T05:07:17;3.08;;;2.10;;
39994;SDS011;25686;51.908;10.418;2023-07-16T05:09:18;4.28;;;2.17;;
39994;SDS011;25686;51.908;10.418;2023-07-16T05:11:20;5.20;;;2.10;;
39994;SDS011;25686;51.908;10.418;2023-07-16T05:13:21;5.80;;;2.30;;
39994;SDS011;25686;51.908;10.418;2023-07-16T05:15:22;6.20;;;2.47;;
39994;SDS011;25686;51.908;10.418;2023-07-16T05:17:23;5.13;;;1.95;;
39994;SDS011;25686;51.908;10.418;2023-07-16T05:19:24;5.53;;;2.22;;
39994;SDS011;25686;51.908;10.418;2023-07-16T05:21:25;4.10;;;2.30;;
39994;SDS011;25686;51.908;10.418;2023-07-16T05:23:26;5.18;;;1.95;;
39994;SDS011;25686;51.908;10.418;2023-07-16T05:25:27;7.72;;;2.45;;
39994;SDS011;25686;51.908;10.418;2023-07-16T05:27:28;4.63;;;2.10;;
39994;SDS011;25686;51.908;10.418;2023-07-16T05:29:29;5.13;;;2.15;;
39994;SDS011;25686;51.908;10.418;2023-07-16T05:31:30;4.35;;;2.00;;
39994;SDS011;25686;51.908;10.418;2023-07-16T05:33:31;6.47;;;2.10;;
39994;SDS011;25686;51.908;10.418;2023-07-16T05:35:32;4.88;;;1.80;;
39994;SDS011;25686;51.908;10.418;2023-07-16T05:37:33;3.00;;;1.90;;
39994;SDS011;25686;51.908;10.418;2023-07-16T05:39:34;5.47;;;2.17;;
39994;SDS011;25686;51.908;10.418;2023-07-16T05:41:35;4.88;;;2.05;;
39994;SDS011;25686;51.908;10.418;2023-07-16T05:43:36;5.85;;;2.08;;
39994;SDS011;25686;51.908;10.418;2023-07-16T05:45:37;6.50;;;2.00;;
39994;SDS011;25686;51.908;10.418;2023-07-16T05:47:38;4.32;;;2.15;;
39994;SDS011;25686;51.908;10.418;2023-07-16T05:49:39;3.08;;;1.90;;
39994;SDS011;25686;51.908;10.418;2023-07-16T05:51:40;9.02;;;1.92;;
39994;SDS011;25686;51.908;10.418;2023-07-16T05:53:41;4.68;;;1.88;;
39994;SDS011;25686;51.908;10.418;2023-07-16T05:55:42;5.38;;;1.70;;
39994;SDS011;25686;51.908;10.418;2023-07-16T05:57:43;4.88;;;1.90;;
39994;SDS011;25686;51.908;10.418;2023-07-16T05:59:44;6.53;;;1.70;;
39994;SDS011;25686;51.908;10.418;2023-07-16T06:01:45;3.97;;;1.92;;
39994;SDS011;25686;51.908;10.418;2023-07-16T06:03:46;5.63;;;1.80;;
39994;SDS011;25686;51.908;10.418;2023-07-16T06:05:47;5.03;;;1.83;;
39994;SDS011;25686;51.908;10.418;2023-07-16T06:07:48;6.78;;;2.10;;
39994;SDS011;25686;51.908;10.418;2023-07-16T06:09:49;5.45;;;1.77;;
39994;SDS011;25686;51.908;10.418;2023-07-16T06:11:50;6.35;;;1.60;;
39994;SDS011;25686;51.908;10.418;2023-07-16T06:13:52;5.55;;;1.70;;
39994;SDS011;25686;51.908;10.418;2023-07-16T06:15:54;3.28;;;1.60;;
39994;SDS011;25686;51.908;10.418;2023-07-16T06:17:55;3.75;;;1.70;;
39994;SDS011;25686;51.908;10.418;2023-07-16T06:19:56;3.97;;;1.92;;
39994;SDS011;25686;51.908;10.418;2023-07-16T06:21:57;3.97;;;1.80;;
39994;SDS011;25686;51.908;10.418;2023-07-16T06:23:58;3.60;;;1.65;;
39994;SDS011;25686;51.908;10.418;2023-07-16T06:25:59;3.53;;;1.90;;
39994;SDS011;25686;51.908;10.418;2023-07-16T06:28:00;6.25;;;2.08;;
39994;SDS011;25686;51.908;10.418;2023-07-16T06:30:01;7.28;;;1.70;;
39994;SDS011;25686;51.908;10.418;2023-07-16T06:32:02;4.95;;;1.50;;
39994;SDS011;25686;51.908;10.418;2023-07-16T06:34:03;5.50;;;1.80;;
39994;SDS011;25686;51.908;10.418;2023-07-16T06:36:04;5.90;;;1.80;;
39994;SDS011;25686;51.908;10.418;2023-07-16T06:38:05;3.63;;;1.45;;
39994;SDS011;25686;51.908;10.418;2023-07-16T06:40:06;6.63;;;1.65;;
39994;SDS011;25686;51.908;10.418;2023-07-16T06:42:08;2.65;;;1.40;;
39994;SDS011;25686;51.908;10.418;2023-07-16T06:44:09;6.22;;;1.80;;
39994;SDS011;25686;51.908;10.418;2023-07-16T06:46:10;3.70;;;1.67;;
39994;SDS011;25686;51.908;10.418;2023-07-16T06:48:11;3.53;;;1.65;;
39994;SDS011;25686;51.908;10.418;2023-07-16T06:50:12;3.30;;;1.60;;
39994;SDS011;25686;51.908;10.418;2023-07-16T06:52:19;8.02;;;1.83;;
39994;SDS011;25686;51.908;10.418;2023-07-16T06:54:20;4.53;;;1.63;;
39994;SDS011;25686;51.908;10.418;2023-07-16T06:56:21;7.65;;;1.80;;
39994;SDS011;25686;51.908;10.418;2023-07-16T06:58:30;4.60;;;1.83;;
39994;SDS011;25686;51.908;10.418;2023-07-16T07:00:32;5.80;;;1.60;;
39994;SDS011;25686;51.908;10.418;2023-07-16T07:02:33;7.60;;;2.08;;
39994;SDS011;25686;51.908;10.418;2023-07-16T07:04:34;3.85;;;1.52;;
39994;SDS011;25686;51.908;10.418;2023-07-16T07:06:35;4.68;;;1.38;;
39994;SDS011;25686;51.908;10.418;2023-07-16T07:08:36;5.53;;;1.60;;
39994;SDS011;25686;51.908;10.418;2023-07-16T07:10:37;4.70;;;1.50;;
39994;SDS011;25686;51.908;10.418;2023-07-16T07:12:39;5.82;;;1.73;;
39994;SDS011;25686;51.908;10.418;2023-07-16T07:14:41;5.50;;;1.80;;
39994;SDS011;25686;51.908;10.418;2023-07-16T07:16:42;6.90;;;1.83;;
39994;SDS011;25686;51.908;10.418;2023-07-16T07:18:43;7.25;;;1.65;;
39994;SDS011;25686;51.908;10.418;2023-07-16T07:20:44;3.95;;;1.80;;
39994;SDS011;25686;51.908;10.418;2023-07-16T07:22:45;7.50;;;1.65;;
39994;SDS011;25686;51.908;10.418;2023-07-16T07:24:46;5.15;;;1.35;;
39994;SDS011;25686;51.908;10.418;2023-07-16T07:26:47;6.35;;;1.48;;
39994;SDS011;25686;51.908;10.418;2023-07-16T07:28:48;4.43;;;1.80;;
39994;SDS011;25686;51.908;10.418;2023-07-16T07:30:49;2.53;;;1.35;;
39994;SDS011;25686;51.908;10.418;2023-07-16T07:32:50;4.68;;;1.48;;
39994;SDS011;25686;51.908;10.418;2023-07-16T07:34:51;6.15;;;1.25;;
39994;SDS011;25686;51.908;10.418;2023-07-16T07:36:52;2.88;;;1.30;;
39994;SDS011;25686;51.908;10.418;2023-07-16T07:38:53;4.47;;;1.63;;
39994;SDS011;25686;51.908;10.418;2023-07-16T07:40:54;3.78;;;1.30;;
39994;SDS011;25686;51.908;10.418;2023-07-16T07:42:55;3.28;;;1.60;;
39994;SDS011;25686;51.908;10.418;2023-07-16T07:44:56;1.48;;;1.38;;
39994;SDS011;25686;51.908;10.418;2023-07-16T07:46:57;4.18;;;1.63;;
39994;SDS011;25686;51.908;10.418;2023-07-16T07:48:58;6.35;;;1.75;;
39994;SDS011;25686;51.908;10.418;2023-07-16T07:50:59;4.35;;;1.70;;
39994;SDS011;25686;51.908;10.418;2023-07-16T07:53:00;5.63;;;1.30;;
39994;SDS011;25686;51.908;10.418;2023-07-16T07:55:01;4.75;;;1.42;;
39994;SDS011;25686;51.908;10.418;2023-07-16T07:57:02;7.07;;;1.70;;
39994;SDS011;25686;51.908;10.418;2023-07-16T07:59:03;3.30;;;1.30;;
39994;SDS011;25686;51.908;10.418;2023-07-16T08:01:05;3.03;;;1.50;;
39994;SDS011;25686;51.908;10.418;2023-07-16T08:03:06;5.45;;;1.45;;
39994;SDS011;25686;51.908;10.418;2023-07-16T08:05:07;7.20;;;1.65;;
39994;SDS011;25686;51.908;10.418;2023-07-16T08:07:08;5.50;;;1.35;;
39994;SDS011;25686;51.908;10.418;2023-07-16T08:09:09;4.15;;;1.63;;
39994;SDS011;25686;51.908;10.418;2023-07-16T08:11:11;5.90;;;1.25;;
39994;SDS011;25686;51.908;10.418;2023-07-16T08:13:12;4.72;;;1.52;;
39994;SDS011;25686;51.908;10.418;2023-07-16T08:15:13;5.13;;;1.50;;
39994;SDS011;25686;51.908;10.418;2023-07-16T08:17:14;6.80;;;1.60;;
39994;SDS011;25686;51.908;10.418;2023-07-16T08:19:15;6.60;;;1.80;;
39994;SDS011;25686;51.908;10.418;2023-07-16T08:21:16;5.20;;;1.50;;
39994;SDS011;25686;51.908;10.418;2023-07-16T08:23:19;3.78;;;1.42;;
39994;SDS011;25686;51.908;10.418;2023-07-16T08:25:20;4.95;;;1.50;;
39994;SDS011;25686;51.908;10.418;2023-07-16T08:27:22;5.80;;;1.67;;
39994;SDS011;25686;51.908;10.418;2023-07-16T08:29:22;3.85;;;1.38;;
39994;SDS011;25686;51.908;10.418;2023-07-16T08:31:23;4.07;;;1.60;;
39994;SDS011;25686;51.908;10.418;2023-07-16T08:33:24;3.83;;;1.65;;
39994;SDS011;25686;51.908;10.418;2023-07-16T08:35:25;3.45;;;1.45;;
39994;SDS011;25686;51.908;10.418;2023-07-16T08:37:26;6.40;;;1.80;;
39994;SDS011;25686;51.908;10.418;2023-07-16T08:39:27;2.65;;;1.30;;
39994;SDS011;25686;51.908;10.418;2023-07-16T08:41:28;4.15;;;1.50;;
39994;SDS011;25686;51.908;10.418;2023-07-16T08:43:30;4.75;;;1.42;;
39994;SDS011;25686;51.908;10.418;2023-07-16T08:45:34;2.92;;;1.48;;
39994;SDS011;25686;51.908;10.418;2023-07-16T08:47:39;3.42;;;1.38;;
39994;SDS011;25686;51.908;10.418;2023-07-16T08:49:40;3.60;;;1.30;;
39994;SDS011;25686;51.908;10.418;2023-07-16T08:51:41;4.75;;;1.30;;
39994;SDS011;25686;51.908;10.418;2023-07-16T08:53:43;4.15;;;1.50;;
39994;SDS011;25686;51.908;10.418;2023-07-16T08:55:44;4.40;;;1.73;;
39994;SDS011;25686;51.908;10.418;2023-07-16T08:57:45;4.45;;;1.30;;
39994;SDS011;25686;51.908;10.418;2023-07-16T08:59:47;5.57;;;1.60;;
39994;SDS011;25686;51.908;10.418;2023-07-16T09:01:49;4.93;;;1.70;;
39994;SDS011;25686;51.908;10.418;2023-07-16T09:03:50;2.75;;;1.38;;
39994;SDS011;25686;51.908;10.418;2023-07-16T09:05:51;2.63;;;1.60;;
39994;SDS011;25686;51.908;10.418;2023-07-16T09:07:52;4.57;;;1.77;;
39994;SDS011;25686;51.908;10.418;2023-07-16T09:09:56;1.50;;;1.10;;
39994;SDS011;25686;51.908;10.418;2023-07-16T09:12:00;3.45;;;1.50;;
39994;SDS011;25686;51.908;10.418;2023-07-16T09:14:02;3.72;;;1.67;;
39994;SDS011;25686;51.908;10.418;2023-07-16T09:16:03;5.72;;;1.67;;
39994;SDS011;25686;51.908;10.418;2023-07-16T09:18:04;3.47;;;1.50;;
39994;SDS011;25686;51.908;10.418;2023-07-16T09:20:05;4.90;;;1.77;;
39994;SDS011;25686;51.908;10.418;2023-07-16T09:22:08;3.88;;;1.70;;
39994;SDS011;25686;51.908;10.418;2023-07-16T09:24:09;5.75;;;1.50;;
39994;SDS011;25686;51.908;10.418;2023-07-16T09:26:10;2.88;;;1.52;;
39994;SDS011;25686;51.908;10.418;2023-07-16T09:28:11;4.47;;;1.63;;
39994;SDS011;25686;51.908;10.418;2023-07-16T09:30:16;4.00;;;1.50;;
39994;SDS011;25686;51.908;10.418;2023-07-16T09:32:17;3.92;;;1.50;;
39994;SDS011;25686;51.908;10.418;2023-07-16T09:34:18;2.90;;;1.58;;
39994;SDS011;25686;51.908;10.418;2023-07-16T09:36:23;6.35;;;1.70;;
39994;SDS011;25686;51.908;10.418;2023-07-16T09:38:25;3.28;;;1.67;;
39994;SDS011;25686;51.908;10.418;2023-07-16T09:40:27;3.47;;;1.40;;
39994;SDS011;25686;51.908;10.418;2023-07-16T09:42:29;2.67;;;1.40;;
39994;SDS011;25686;51.908;10.418;2023-07-16T09:44:30;4.38;;;1.60;;
39994;SDS011;25686;51.908;10.418;2023-07-16T09:46:31;4.25;;;1.80;;
39994;SDS011;25686;51.908;10.418;2023-07-16T09:48:32;2.47;;;1.58;;
39994;SDS011;25686;51.908;10.418;2023-07-16T09:50:34;3.05;;;1.55;;
39994;SDS011;25686;51.908;10.418;2023-07-16T09:52:35;6.85;;;1.83;;
39994;SDS011;25686;51.908;10.418;2023-07-16T09:54:36;5.53;;;1.58;;
39994;SDS011;25686;51.908;10.418;2023-07-16T09:56:45;10.10;;;1.92;;
39994;SDS011;25686;51.908;10.418;2023-07-16T09:58:47;5.35;;;1.67;;
39994;SDS011;25686;51.908;10.418;2023-07-16T10:00:48;5.45;;;1.73;;
39994;SDS011;25686;51.908;10.418;2023-07-16T10:02:50;3.67;;;1.42;;
39994;SDS011;25686;51.908;10.418;2023-07-16T10:04:54;4.05;;;1.80;;
39994;SDS011;25686;51.908;10.418;2023-07-16T10:07:00;3.95;;;1.73;;
39994;SDS011;25686;51.908;10.418;2023-07-16T10:09:01;5.28;;;1.90;;
39994;SDS011;25686;51.908;10.418;2023-07-16T10:11:02;3.47;;;1.60;;
39994;SDS011;25686;51.908;10.418;2023-07-16T10:13:03;3.92;;;1.65;;
39994;SDS011;25686;51.908;10.418;2023-07-16T10:15:05;6.22;;;1.77;;
39994;SDS011;25686;51.908;10.418;2023-07-16T10:17:06;6.20;;;1.88;;
39994;SDS011;25686;51.908;10.418;2023-07-16T10:19:07;6.88;;;1.80;;
39994;SDS011;25686;51.908;10.418;2023-07-16T10:21:08;6.90;;;1.80;;
39994;SDS011;25686;51.908;10.418;2023-07-16T10:23:10;4.22;;;1.77;;
39994;SDS011;25686;51.908;10.418;2023-07-16T10:27:25;4.38;;;1.83;;
39994;SDS011;25686;51.908;10.418;2023-07-16T10:29:26;3.25;;;1.42;;
39994;SDS011;25686;51.908;10.418;2023-07-16T10:31:27;3.90;;;1.70;;
39994;SDS011;25686;51.908;10.418;2023-07-16T10:33:28;3.53;;;1.70;;
39994;SDS011;25686;51.908;10.418;2023-07-16T10:35:29;3.03;;;1.65;;
39994;SDS011;25686;51.908;10.418;2023-07-16T10:37:30;4.35;;;1.88;;
39994;SDS011;25686;51.908;10.418;2023-07-16T10:39:31;6.38;;;1.50;;
39994;SDS011;25686;51.908;10.418;2023-07-16T10:41:33;7.50;;;1.70;;
39994;SDS011;25686;51.908;10.418;2023-07-16T10:43:34;5.00;;;1.90;;
39994;SDS011;25686;51.908;10.418;2023-07-16T10:45:35;3.58;;;1.63;;
39994;SDS011;25686;51.908;10.418;2023-07-16T10:47:37;5.40;;;2.33;;
39994;SDS011;25686;51.908;10.418;2023-07-16T10:49:39;8.95;;;2.08;;
39994;SDS011;25686;51.908;10.418;2023-07-16T10:51:40;3.33;;;1.83;;
39994;SDS011;25686;51.908;10.418;2023-07-16T10:53:44;4.57;;;2.10;;
39994;SDS011;25686;51.908;10.418;2023-07-16T10:55:45;3.40;;;1.67;;
39994;SDS011;25686;51.908;10.418;2023-07-16T10:57:47;4.00;;;1.75;;
39994;SDS011;25686;51.908;10.418;2023-07-16T10:59:50;3.60;;;1.70;;
39994;SDS011;25686;51.908;10.418;2023-07-16T11:01:51;5.40;;;1.90;;
39994;SDS011;25686;51.908;10.418;2023-07-16T11:03:52;4.28;;;1.90;;
39994;SDS011;25686;51.908;10.418;2023-07-16T11:05:53;4.38;;;1.95;;
39994;SDS011;25686;51.908;10.418;2023-07-16T11:07:54;3.30;;;1.92;;
39994;SDS011;25686;51.908;10.418;2023-07-16T11:09:55;5.03;;;1.65;;
39994;SDS011;25686;51.908;10.418;2023-07-16T11:12:04;5.05;;;1.77;;
39994;SDS011;25686;51.908;10.418;2023-07-16T11:14:06;5.57;;;1.92;;
39994;SDS011;25686;51.908;10.418;2023-07-16T11:16:07;4.70;;;2.20;;
39994;SDS011;25686;51.908;10.418;2023-07-16T11:18:08;9.32;;;1.92;;
39994;SDS011;25686;51.908;10.418;2023-07-16T11:20:10;4.82;;;1.80;;
39994;SDS011;25686;51.908;10.418;2023-07-16T11:22:11;3.42;;;1.85;;
39994;SDS011;25686;51.908;10.418;2023-07-16T11:24:12;6.13;;;1.92;;
39994;SDS011;25686;51.908;10.418;2023-07-16T11:26:15;7.10;;;2.17;;
39994;SDS011;25686;51.908;10.418;2023-07-16T11:28:16;2.75;;;1.92;;
39994;SDS011;25686;51.908;10.418;2023-07-16T11:30:21;4.15;;;1.73;;
39994;SDS011;25686;51.908;10.418;2023-07-16T11:32:26;4.50;;;2.08;;
39994;SDS011;25686;51.908;10.418;2023-07-16T11:34:27;4.28;;;2.10;;
39994;SDS011;25686;51.908;10.418;2023-07-16T11:36:28;3.15;;;2.00;;
39994;SDS011;25686;51.908;10.418;2023-07-16T11:38:29;6.00;;;1.83;;
39994;SDS011;25686;51.908;10.418;2023-07-16T11:40:30;4.28;;;1.98;;
39994;SDS011;25686;51.908;10.418;2023-07-16T11:42:32;5.05;;;2.35;;
39994;SDS011;25686;51.908;10.418;2023-07-16T11:44:34;3.50;;;1.98;;
39994;SDS011;25686;51.908;10.418;2023-07-16T11:46:35;2.97;;;2.00;;
39994;SDS011;25686;51.908;10.418;2023-07-16T11:48:36;5.13;;;2.20;;
39994;SDS011;25686;51.908;10.418;2023-07-16T11:50:37;4.65;;;2.00;;
39994;SDS011;25686;51.908;10.418;2023-07-16T11:52:38;3.95;;;2.17;;
39994;SDS011;25686;51.908;10.418;2023-07-16T11:54:40;5.88;;;2.10;;
39994;SDS011;25686;51.908;10.418;2023-07-16T11:56:41;2.53;;;2.00;;
39994;SDS011;25686;51.908;10.418;2023-07-16T11:58:42;3.08;;;2.10;;
39994;SDS011;25686;51.908;10.418;2023-07-16T12:00:43;3.90;;;1.98;;
39994;SDS011;25686;51.908;10.418;2023-07-16T12:02:44;5.68;;;2.15;;
39994;SDS011;25686;51.908;10.418;2023-07-16T12:04:51;6.55;;;2.10;;
39994;SDS011;25686;51.908;10.418;2023-07-16T12:06:52;5.07;;;2.00;;
39994;SDS011;25686;51.908;10.418;2023-07-16T12:08:53;5.70;;;2.25;;